This is the latest recevied weather packets stored in our database for station/object kj4yre. If no packets are shown the sender has not sent any weather packets the latest 10 day(s).
| Time | Temp. | Humidity | Pressure | Rain* | Wind** | Luminosity | Snow |
|---|---|---|---|---|---|---|---|
| 1777396805 | 15.56° C | 75% | 1021.3 hPa | 0 mm | - | - | - |
| 1777394105 | 15.56° C | 74% | 1022.6 hPa | 0 mm | - | - | - |
| 1777386606 | 12.78° C | 86% | 1022.8 hPa | 0 mm | - | - | - |
| 1777384505 | 12.78° C | 86% | 1022.8 hPa | 0 mm | - | - | - |
| 1777383606 | 12.22° C | 90% | 1023.2 hPa | 0 mm | - | - | - |
| 1777380305 | 11.67° C | 92% | 1024.9 hPa | 0 mm | - | - | - |
| 1777377606 | 8.89° C | 100% | 1023.7 hPa | 0 mm | - | - | - |
| 1777376105 | 7.22° C | 100% | 1022.9 hPa | 0 mm | - | - | - |
| 1777374605 | 5.56° C | 100% | 1023.1 hPa | 0 mm | - | - | - |
| 1777373405 | 5° C | 100% | 1022.8 hPa | 0 mm | - | - | - |
| 1777371305 | 4.44° C | 100% | 1022.7 hPa | 0 mm | - | - | - |
| 1777368607 | 4.44° C | 100% | 1022.8 hPa | 0 mm | - | - | - |
| 1777366806 | 3.89° C | 100% | 1022.6 hPa | 0 mm | - | - | - |
| 1777365005 | 4.44° C | 100% | 1022.9 hPa | 0 mm | - | - | - |
| 1777363806 | 4.44° C | 100% | 1023.2 hPa | 0 mm | - | - | - |
| 1777363205 | 4.44° C | 100% | 1023.4 hPa | 0 mm | - | - | - |
| 1777361706 | 4.44° C | 100% | 1023.5 hPa | 0 mm | - | - | - |
| 1777361106 | 4.44° C | 100% | 1023.4 hPa | 0 mm | - | - | - |
| 1777359906 | 5° C | 100% | 1023.5 hPa | 0 mm | - | - | - |
| 1777357805 | 5° C | 100% | 1023.5 hPa | 0 mm | - | - | - |
| 1777357206 | 5° C | 100% | 1023.4 hPa | 0 mm | - | - | - |
| 1777354506 | 5.56° C | 100% | 1023.8 hPa | 0 mm | - | - | - |
| 1777351806 | 6.11° C | 100% | 1024.9 hPa | 0 mm | - | - | - |
| 1777348207 | 7.22° C | 100% | 1025 hPa | 0 mm | - | - | - |
| 1777343706 | 8.89° C | 93% | 1025.9 hPa | 0 mm | - | - | - |
* Rain latest hour (hover to see other rain measurements)
** Current wind speed in m/s (hover to see current wind gust speed)